Time;durP1;ratioP1;P1;durP2;ratioP2;P2;SDS_P1;SDS_P2;PMS_P1;PMS_P2;Temp;Humidity;BMP_temperature;BMP_pressure;BME280_temperature;BME280_humidity;BME280_pressure;Samples;Min_cycle;Max_cycle;Signal;HPM_P1;HPM_P2
2022/11/14 00:00:13;;;;;;;47.57;32.80;;;;;;;6.73;89.32;95990.59;5071960;28;20440;-76
2022/11/14 00:02:41;;;;;;;54.80;31.20;;;;;;;6.73;90.20;95985.38;5072447;28;20813;-76
2022/11/14 00:05:09;;;;;;;55.03;30.07;;;;;;;6.66;90.07;95990.09;5071984;28;20492;-76
2022/11/14 00:07:36;;;;;;;50.20;29.30;;;;;;;6.69;90.30;95989.94;5072509;28;20443;-74
2022/11/14 00:10:03;;;;;;;53.00;29.50;;;;;;;6.74;89.96;95989.69;5071805;28;20453;-75
2022/11/14 00:12:30;;;;;;;51.63;32.07;;;;;;;6.74;90.39;95990.53;5071799;28;20477;-75
2022/11/14 00:14:56;;;;;;;57.93;34.80;;;;;;;6.56;89.98;95988.84;5071983;28;20482;-75
2022/11/14 00:17:23;;;;;;;57.87;31.40;;;;;;;6.56;90.75;95988.00;5072056;28;20446;-74
2022/11/14 00:19:51;;;;;;;59.50;34.33;;;;;;;6.52;91.29;95987.34;5071953;28;20875;-75
2022/11/14 00:22:18;;;;;;;61.60;35.50;;;;;;;6.50;91.83;95986.56;5071554;28;20779;-75
2022/11/14 00:24:45;;;;;;;55.60;34.07;;;;;;;6.31;91.71;95975.38;5071824;28;20925;-74
2022/11/14 00:27:12;;;;;;;59.40;34.90;;;;;;;6.35;91.56;95989.94;5071504;28;20926;-75
2022/11/14 00:29:39;;;;;;;49.23;32.60;;;;;;;6.33;90.30;96003.06;5036633;28;20559;-75
2022/11/14 00:32:06;;;;;;;51.50;32.27;;;;;;;6.32;89.49;96000.53;5071774;28;20456;-74
2022/11/14 00:34:33;;;;;;;51.53;30.20;;;;;;;6.32;89.30;96008.34;5071602;28;20492;-75
2022/11/14 00:37:01;;;;;;;55.37;32.97;;;;;;;6.33;89.00;96002.22;5071768;28;20451;-75
2022/11/14 00:39:28;;;;;;;58.33;31.30;;;;;;;6.35;89.08;96000.38;5071750;28;20448;-75
2022/11/14 00:41:55;;;;;;;59.93;31.63;;;;;;;6.33;88.75;96000.44;5052547;28;20998;-75
2022/11/14 00:44:22;;;;;;;58.43;32.60;;;;;;;6.30;89.96;95992.78;5071438;28;20454;-75
2022/11/14 00:46:49;;;;;;;55.23;32.37;;;;;;;6.32;89.88;95990.09;5071694;28;20439;-75
2022/11/14 00:49:15;;;;;;;53.47;33.63;;;;;;;6.33;90.53;95994.41;5071566;28;20447;-75
2022/11/14 00:51:42;;;;;;;49.53;30.77;;;;;;;6.33;90.37;95982.19;5036076;28;20446;-75
2022/11/14 00:54:10;;;;;;;46.47;31.20;;;;;;;6.38;90.31;95984.59;5052124;28;20492;-75
2022/11/14 00:56:37;;;;;;;53.37;30.47;;;;;;;6.42;90.43;95980.91;5071398;28;20916;-75
2022/11/14 00:59:04;;;;;;;58.83;30.80;;;;;;;6.49;90.74;95987.50;5073036;28;20758;-76
2022/11/14 01:01:31;;;;;;;49.27;29.90;;;;;;;6.54;90.03;95990.69;5075563;28;20445;-75
2022/11/14 01:03:58;;;;;;;52.67;29.60;;;;;;;6.57;89.68;95984.47;5075485;28;20496;-75
2022/11/14 01:06:24;;;;;;;56.53;32.70;;;;;;;6.60;89.61;95984.31;5075411;28;20449;-76
2022/11/14 01:08:52;;;;;;;45.70;24.83;;;;;;;6.62;89.16;95978.09;5075296;28;20805;-75
2022/11/14 01:11:22;;;;;;;33.93;19.33;;;;;;;6.62;90.12;95980.72;5075180;28;20444;-76
2022/11/14 01:13:49;;;;;;;23.47;17.07;;;;;;;6.57;90.24;95980.13;5075220;28;21042;-75
2022/11/14 01:16:15;;;;;;;21.23;14.53;;;;;;;6.59;91.54;95974.81;5075758;28;20507;-76
2022/11/14 01:18:42;;;;;;;17.07;13.10;;;;;;;6.53;91.93;95971.59;5075134;28;20445;-76
2022/11/14 01:21:12;;;;;;;23.20;14.60;;;;;;;6.46;91.54;95972.00;5075032;28;20445;-76
2022/11/14 01:23:39;;;;;;;28.83;18.47;;;;;;;6.37;92.77;95969.88;5074914;28;20568;-76
2022/11/14 01:26:07;;;;;;;26.00;15.50;;;;;;;6.33;93.14;95963.97;5075095;28;20510;-76
2022/11/14 01:28:35;;;;;;;28.90;16.47;;;;;;;6.39;93.00;95961.06;5074866;28;20530;-76
2022/11/14 01:31:10;;;;;;;26.00;15.40;;;;;;;6.37;92.44;95951.63;5074819;28;20849;-76
2022/11/14 01:33:37;;;;;;;21.77;15.07;;;;;;;6.42;93.12;95955.69;5075013;28;20974;-76
2022/11/14 01:36:04;;;;;;;28.30;15.60;;;;;;;6.46;92.24;95938.13;5055613;28;20514;-74
2022/11/14 01:38:31;;;;;;;23.20;14.20;;;;;;;6.49;92.91;95943.16;5074778;28;20449;-76
2022/11/14 01:40:58;;;;;;;22.47;13.40;;;;;;;6.50;94.07;95937.03;5075099;28;20503;-76
2022/11/14 01:43:31;;;;;;;18.40;12.27;;;;;;;6.55;94.00;95935.03;5074884;28;20448;-76
2022/11/14 01:46:02;;;;;;;16.30;10.80;;;;;;;6.60;94.73;95934.78;5074668;28;20726;-76
2022/11/14 01:48:35;;;;;;;17.63;11.60;;;;;;;6.68;94.59;95938.69;5074454;28;20449;-76
2022/11/14 01:51:05;;;;;;;19.37;12.60;;;;;;;6.74;94.37;95930.53;5074459;28;20447;-76
2022/11/14 01:53:32;;;;;;;17.43;11.80;;;;;;;6.76;94.51;95927.84;5074202;28;21003;-76
2022/11/14 01:56:02;;;;;;;19.17;12.57;;;;;;;6.75;94.21;95926.16;5055632;28;20493;-75
2022/11/14 01:58:31;;;;;;;14.90;9.93;;;;;;;6.79;94.69;95930.28;5074299;28;20937;-76
2022/11/14 02:00:59;;;;;;;14.93;10.37;;;;;;;6.77;94.46;95927.75;5074069;28;20960;-75
2022/11/14 02:03:26;;;;;;;16.93;12.17;;;;;;;6.78;94.37;95926.00;5074405;28;20448;-75
2022/11/14 02:05:54;;;;;;;20.23;12.23;;;;;;;6.81;93.80;95926.66;5074487;28;20451;-76
2022/11/14 02:08:22;;;;;;;28.90;15.47;;;;;;;6.76;92.46;95928.69;5074480;28;20447;-76
2022/11/14 02:10:49;;;;;;;32.70;18.80;;;;;;;6.63;91.45;95927.63;5037711;28;20445;-76
2022/11/14 02:13:16;;;;;;;43.00;22.87;;;;;;;6.45;90.97;95926.84;5074147;28;20458;-76
2022/11/14 02:15:43;;;;;;;47.03;26.40;;;;;;;6.02;91.22;95930.78;5038973;28;20448;-75
2022/11/14 02:18:11;;;;;;;43.93;27.00;;;;;;;5.48;93.08;95929.09;5074346;28;20496;-75
2022/11/14 02:20:42;;;;;;;48.67;25.67;;;;;;;5.35;93.30;95931.47;5038595;28;20518;-76
2022/11/14 02:23:10;;;;;;;56.37;26.90;;;;;;;5.32;92.09;95928.16;5073749;28;20834;-74
2022/11/14 02:25:37;;;;;;;49.30;27.67;;;;;;;5.18;92.71;95936.59;5074010;28;20531;-75
2022/11/14 02:28:04;;;;;;;50.10;25.53;;;;;;;5.12;92.47;95934.28;5073759;28;20524;-74
2022/11/14 02:30:31;;;;;;;54.50;28.10;;;;;;;5.08;92.14;95937.97;5073799;28;20444;-75
2022/11/14 02:32:58;;;;;;;43.13;25.77;;;;;;;5.09;91.33;95930.09;5073666;28;20441;-75
2022/11/14 02:35:25;;;;;;;56.80;24.87;;;;;;;5.01;91.59;95941.75;5073622;28;20722;-75
2022/11/14 02:37:53;;;;;;;56.13;26.30;;;;;;;4.81;90.63;95929.66;5073537;28;20817;-75
2022/11/14 02:40:20;;;;;;;65.30;26.93;;;;;;;4.74;90.03;95938.66;5073487;28;20440;-76
2022/11/14 02:42:47;;;;;;;71.30;27.17;;;;;;;4.61;90.82;95936.59;5073511;28;20802;-75
2022/11/14 02:45:13;;;;;;;71.00;24.87;;;;;;;4.38;91.51;95936.78;5073781;28;20935;-75
2022/11/14 02:47:40;;;;;;;60.80;24.80;;;;;;;4.39;91.41;95935.03;5073659;28;20519;-76
2022/11/14 02:50:07;;;;;;;52.70;23.20;;;;;;;4.41;92.09;95930.63;5073195;28;21206;-75
2022/11/14 02:52:34;;;;;;;52.77;25.07;;;;;;;4.47;91.67;95932.94;5037834;28;20445;-75
2022/11/14 02:55:02;;;;;;;51.83;24.27;;;;;;;4.53;91.96;95928.31;5073132;28;20569;-75
2022/11/14 02:57:29;;;;;;;43.03;23.00;;;;;;;4.44;92.15;95931.31;5072967;28;20444;-76
2022/11/14 02:59:56;;;;;;;43.00;24.60;;;;;;;4.40;92.25;95923.72;5073553;28;20441;-76
2022/11/14 03:02:23;;;;;;;45.13;22.60;;;;;;;4.38;91.61;95923.81;5073349;28;20494;-76
2022/11/14 03:04:49;;;;;;;45.47;25.40;;;;;;;4.37;92.06;95926.47;5073200;28;20464;-75
2022/11/14 03:07:16;;;;;;;48.37;24.37;;;;;;;4.37;91.82;95921.28;5072949;28;20445;-75
2022/11/14 03:09:43;;;;;;;47.47;23.90;;;;;;;4.33;91.63;95931.78;5072877;28;20968;-76
2022/11/14 03:12:11;;;;;;;49.23;20.33;;;;;;;4.06;92.03;95917.41;5073061;28;20448;-76
2022/11/14 03:14:38;;;;;;;41.50;20.77;;;;;;;4.13;91.84;95921.44;5072780;28;20488;-76
2022/11/14 03:17:05;;;;;;;39.60;21.63;;;;;;;4.18;92.48;95926.41;5073030;28;20452;-75
2022/11/14 03:19:31;;;;;;;36.83;21.73;;;;;;;4.23;91.42;95930.50;5072764;28;20434;-76
2022/11/14 03:21:58;;;;;;;39.43;20.23;;;;;;;4.20;91.91;95924.59;5072495;28;20453;-76
2022/11/14 03:24:25;;;;;;;32.53;21.47;;;;;;;4.23;91.83;95919.25;5072652;28;20445;-76
2022/11/14 03:26:52;;;;;;;36.80;20.03;;;;;;;4.28;92.43;95918.16;5073001;28;20449;-76
2022/11/14 03:29:20;;;;;;;38.00;20.10;;;;;;;4.23;92.79;95920.09;5072845;28;20877;-75
2022/11/14 03:31:47;;;;;;;41.50;21.80;;;;;;;4.21;92.58;95921.94;5072493;28;20935;-75
2022/11/14 03:34:14;;;;;;;52.87;24.13;;;;;;;4.17;93.38;95927.31;5072504;28;20489;-76
2022/11/14 03:36:41;;;;;;;69.90;22.57;;;;;;;4.05;94.08;95915.72;5072695;28;20514;-76
2022/11/14 03:39:08;;;;;;;142.43;25.33;;;;;;;3.94;94.46;95923.09;5072273;28;20463;-76
2022/11/14 03:41:34;;;;;;;79.93;22.83;;;;;;;3.93;94.98;95919.66;5072718;28;20452;-75
2022/11/14 03:44:01;;;;;;;98.77;25.47;;;;;;;3.87;95.84;95913.91;5072552;28;20936;-75
2022/11/14 03:46:29;;;;;;;93.47;24.20;;;;;;;3.80;97.16;95912.47;5072493;28;20440;-75
2022/11/14 03:48:56;;;;;;;56.03;24.60;;;;;;;3.88;96.69;95916.44;5053494;28;20958;-75
2022/11/14 03:51:23;;;;;;;65.20;25.83;;;;;;;3.90;97.29;95919.81;5072024;28;20449;-75
2022/11/14 03:53:50;;;;;;;42.30;24.93;;;;;;;4.01;98.32;95914.97;5072299;28;20464;-75
2022/11/14 03:56:16;;;;;;;52.80;22.70;;;;;;;4.12;98.18;95911.09;5072471;28;20451;-75
2022/11/14 03:58:43;;;;;;;42.47;23.63;;;;;;;4.22;97.92;95915.81;5072288;28;20440;-75
2022/11/14 04:01:10;;;;;;;42.10;23.37;;;;;;;4.27;97.08;95911.25;5072122;28;20444;-75
2022/11/14 04:03:38;;;;;;;44.17;22.97;;;;;;;4.35;97.42;95916.16;5036755;28;20460;-75
2022/11/14 04:06:05;;;;;;;51.73;25.10;;;;;;;4.45;97.06;95914.81;5071942;28;20457;-75
2022/11/14 04:08:32;;;;;;;46.93;24.20;;;;;;;4.50;95.92;95912.00;5072077;28;20444;-75
2022/11/14 04:10:59;;;;;;;49.97;24.80;;;;;;;4.57;96.04;95913.41;5071931;28;20441;-74
2022/11/14 04:13:26;;;;;;;57.87;28.70;;;;;;;4.62;95.74;95914.88;5071939;28;20470;-74
2022/11/14 04:15:56;;;;;;;55.90;26.13;;;;;;;4.62;96.12;95907.09;5071765;28;20970;-76
2022/11/14 04:18:23;;;;;;;52.90;28.00;;;;;;;4.59;96.40;95911.59;5071796;28;20452;-75
2022/11/14 04:20:51;;;;;;;65.77;24.50;;;;;;;4.58;95.65;95912.50;5071650;28;21248;-76
2022/11/14 04:23:18;;;;;;;88.67;24.80;;;;;;;4.57;95.92;95903.00;5071747;28;20445;-75
2022/11/14 04:25:46;;;;;;;66.30;23.93;;;;;;;4.63;95.87;95898.41;5071949;28;20453;-76
2022/11/14 04:28:14;;;;;;;79.20;25.27;;;;;;;4.58;95.52;95899.50;5071889;28;20530;-75
2022/11/14 04:30:41;;;;;;;103.60;26.37;;;;;;;4.53;94.65;95896.28;5071676;28;20449;-75
2022/11/14 04:33:07;;;;;;;103.63;26.93;;;;;;;4.40;96.14;95897.75;5070809;28;20437;-77
2022/11/14 04:35:34;;;;;;;75.13;26.97;;;;;;;4.17;97.13;95897.00;5071585;28;20542;-75
2022/11/14 04:38:02;;;;;;;101.60;25.20;;;;;;;4.12;98.13;95895.53;5071715;28;20436;-76
2022/11/14 04:40:29;;;;;;;87.27;27.23;;;;;;;4.07;99.77;95887.94;5052947;28;20514;-75
2022/11/14 04:42:56;;;;;;;160.83;33.87;;;;;;;4.10;100.00;95903.38;5071600;28;20863;-75
2022/11/14 04:45:23;;;;;;;92.67;28.00;;;;;;;4.11;100.00;95894.69;5036080;28;20798;-76
2022/11/14 04:47:49;;;;;;;66.60;28.43;;;;;;;4.09;100.00;95893.91;5071535;28;20939;-75
2022/11/14 04:50:16;;;;;;;128.80;27.27;;;;;;;4.13;100.00;95897.22;5071789;28;20445;-75
2022/11/14 04:52:43;;;;;;;49.43;27.50;;;;;;;4.20;100.00;95896.03;5071431;28;20448;-75
2022/11/14 04:55:11;;;;;;;72.07;25.97;;;;;;;4.33;100.00;95897.16;5071705;28;20606;-76
2022/11/14 04:57:38;;;;;;;66.63;24.47;;;;;;;4.32;100.00;95891.13;5052486;28;20441;-75
2022/11/14 05:00:06;;;;;;;103.90;25.17;;;;;;;4.41;100.00;95896.84;5072149;28;20449;-76
2022/11/14 05:02:33;;;;;;;104.37;24.30;;;;;;;4.43;100.00;95887.22;5071347;28;20452;-75
2022/11/14 05:05:00;;;;;;;104.17;24.10;;;;;;;4.47;100.00;95894.81;5071606;28;20456;-76
2022/11/14 05:07:26;;;;;;;107.77;25.03;;;;;;;4.48;100.00;95903.44;5071532;28;20448;-75
2022/11/14 05:09:53;;;;;;;133.33;27.40;;;;;;;4.43;100.00;95897.59;5071587;28;20532;-76
2022/11/14 05:12:21;;;;;;;122.00;26.00;;;;;;;4.40;100.00;95905.53;5071337;28;20452;-75
2022/11/14 05:14:48;;;;;;;68.07;26.00;;;;;;;4.45;100.00;95904.41;5071538;28;20481;-76
2022/11/14 05:17:15;;;;;;;78.80;28.47;;;;;;;4.40;100.00;95908.16;5071156;28;20444;-75
2022/11/14 05:19:42;;;;;;;117.87;32.43;;;;;;;4.40;100.00;95910.75;5071335;28;20800;-76
2022/11/14 05:22:09;;;;;;;95.13;35.00;;;;;;;4.48;100.00;95909.47;5035873;28;20928;-75
2022/11/14 05:24:35;;;;;;;73.90;29.07;;;;;;;4.42;100.00;95914.97;5035860;28;20935;-75
2022/11/14 05:27:02;;;;;;;84.43;27.20;;;;;;;4.39;100.00;95917.69;5071226;28;20448;-75
2022/11/14 05:29:30;;;;;;;92.33;26.37;;;;;;;4.50;100.00;95917.22;5070854;28;20494;-75
2022/11/14 05:31:57;;;;;;;54.73;26.27;;;;;;;4.38;100.00;95923.81;5071469;28;20510;-76
2022/11/14 05:34:24;;;;;;;70.07;26.10;;;;;;;4.24;100.00;95915.75;5052280;28;20456;-75
2022/11/14 05:36:51;;;;;;;47.57;21.67;;;;;;;4.16;100.00;95917.84;5071113;28;20522;-75
2022/11/14 05:39:18;;;;;;;54.70;21.10;;;;;;;4.26;100.00;95921.72;5071021;28;20856;-76
2022/11/14 05:41:45;;;;;;;38.17;17.63;;;;;;;4.06;100.00;95925.19;5036059;28;20448;-76
2022/11/14 05:44:11;;;;;;;62.87;24.37;;;;;;;4.22;100.00;95920.16;5071085;28;20903;-76
2022/11/14 05:46:39;;;;;;;49.80;20.40;;;;;;;4.34;100.00;95925.69;5074829;28;20463;-76
2022/11/14 05:49:06;;;;;;;54.23;22.57;;;;;;;4.51;100.00;95924.09;5074756;28;20444;-76
2022/11/14 05:51:33;;;;;;;40.00;19.20;;;;;;;4.48;100.00;95924.22;5074567;28;20490;-76
2022/11/14 05:54:00;;;;;;;52.90;19.80;;;;;;;4.49;100.00;95926.75;5075035;28;20521;-76
2022/11/14 05:56:26;;;;;;;48.33;20.77;;;;;;;4.52;100.00;95930.97;5074685;28;20533;-76
2022/11/14 05:58:53;;;;;;;79.73;20.17;;;;;;;4.54;100.00;95923.94;5074519;28;20457;-76
2022/11/14 06:01:20;;;;;;;54.60;19.37;;;;;;;4.48;100.00;95934.63;5074725;28;20845;-76
2022/11/14 06:03:49;;;;;;;31.70;18.67;;;;;;;4.58;100.00;95931.53;5074413;28;20811;-76
2022/11/14 06:06:18;;;;;;;70.13;22.30;;;;;;;4.67;100.00;95927.72;5074691;28;20453;-76
2022/11/14 06:08:45;;;;;;;46.77;19.77;;;;;;;4.66;100.00;95926.88;5074508;28;20514;-76
2022/11/14 06:11:13;;;;;;;46.80;19.53;;;;;;;4.79;100.00;95934.09;5074135;28;20951;-76
2022/11/14 06:13:40;;;;;;;36.60;18.57;;;;;;;4.82;100.00;95937.41;5074281;28;20453;-76
2022/11/14 06:16:09;;;;;;;57.13;19.40;;;;;;;4.86;100.00;95931.13;5073960;28;20888;-75
2022/11/14 06:18:37;;;;;;;36.93;19.77;;;;;;;4.81;100.00;95938.31;5039600;28;20441;-76
2022/11/14 06:21:07;;;;;;;37.40;19.20;;;;;;;4.83;100.00;95946.88;5074107;28;20453;-76
2022/11/14 06:23:34;;;;;;;40.97;18.00;;;;;;;4.78;100.00;95946.25;5073900;28;20865;-76
2022/11/14 06:26:03;;;;;;;70.87;20.10;;;;;;;4.76;100.00;95950.69;5073900;28;20447;-76
2022/11/14 06:28:30;;;;;;;40.87;21.07;;;;;;;4.84;100.00;95940.78;5073957;28;20950;-75
2022/11/14 06:30:59;;;;;;;45.30;19.30;;;;;;;4.89;100.00;95941.41;5073808;28;20503;-75
2022/11/14 06:33:25;;;;;;;44.77;21.13;;;;;;;4.86;100.00;95946.75;5073625;28;21027;-75
2022/11/14 06:35:58;;;;;;;33.87;18.87;;;;;;;4.84;100.00;95942.53;5074012;28;20610;-76
2022/11/14 06:38:26;;;;;;;37.70;19.67;;;;;;;4.85;100.00;95944.22;5073625;28;21003;-75
2022/11/14 06:41:01;;;;;;;42.07;19.93;;;;;;;4.71;100.00;95944.84;5073932;28;20448;-75
2022/11/14 06:43:28;;;;;;;50.93;19.67;;;;;;;4.69;100.00;95943.22;5073434;28;20441;-75
2022/11/14 06:45:55;;;;;;;50.43;20.60;;;;;;;4.72;100.00;95935.28;5073633;28;20451;-75
2022/11/14 06:48:21;;;;;;;39.53;17.90;;;;;;;4.85;100.00;95937.25;5037984;28;20448;-75
2022/11/14 06:50:52;;;;;;;38.40;20.00;;;;;;;4.92;100.00;95941.28;5073468;28;20494;-75
2022/11/14 06:53:18;;;;;;;31.93;16.70;;;;;;;4.84;100.00;95934.72;5037660;28;20579;-76
2022/11/14 06:55:54;;;;;;;39.87;19.27;;;;;;;4.97;100.00;95928.06;5073302;28;21025;-75
2022/11/14 06:58:21;;;;;;;35.53;19.20;;;;;;;5.06;100.00;95927.63;5073421;28;20449;-75
2022/11/14 07:00:48;;;;;;;27.80;17.13;;;;;;;5.13;100.00;95920.38;5073460;28;20444;-76
2022/11/14 07:03:14;;;;;;;38.13;18.93;;;;;;;5.18;100.00;95924.44;5073141;28;20440;-76
2022/11/14 07:05:41;;;;;;;37.53;17.70;;;;;;;5.19;100.00;95922.69;5074054;28;20457;-77
2022/11/14 07:08:08;;;;;;;38.60;17.50;;;;;;;5.15;100.00;95927.19;5073634;28;20449;-75
2022/11/14 07:10:35;;;;;;;40.90;18.30;;;;;;;5.14;100.00;95924.66;5073549;28;20452;-75
2022/11/14 07:13:03;;;;;;;33.27;17.40;;;;;;;5.09;100.00;95918.84;5071332;28;20452;-75
2022/11/14 07:15:30;;;;;;;44.53;24.03;;;;;;;5.21;100.00;95920.88;5058463;28;20489;-76
2022/11/14 07:17:58;;;;;;;38.97;18.90;;;;;;;5.16;100.00;95928.03;5061754;28;20445;-77
2022/11/14 07:20:25;;;;;;;51.13;17.40;;;;;;;5.09;100.00;95926.63;5070330;28;20471;-77
2022/11/14 07:22:51;;;;;;;31.20;15.93;;;;;;;4.98;100.00;95925.38;5074152;28;20528;-76
2022/11/14 07:25:19;;;;;;;23.63;14.87;;;;;;;4.83;100.00;95928.69;5052130;28;20833;-76
2022/11/14 07:27:46;;;;;;;34.00;17.90;;;;;;;4.94;100.00;95929.06;5073180;28;20447;-77
2022/11/14 07:30:15;;;;;;;27.70;18.00;;;;;;;5.05;100.00;95917.28;5073528;28;21158;-78
2022/11/14 07:32:42;;;;;;;45.80;16.03;;;;;;;5.11;100.00;95914.41;5073838;28;20445;-76
2022/11/14 07:35:09;;;;;;;29.87;17.60;;;;;;;5.25;100.00;95920.66;5073225;28;20453;-77
2022/11/14 07:37:36;;;;;;;35.37;16.47;;;;;;;5.22;100.00;95918.19;5073966;28;20460;-76
2022/11/14 07:40:03;;;;;;;25.43;15.60;;;;;;;5.37;100.00;95916.63;5073195;28;20532;-77
2022/11/14 07:42:29;;;;;;;29.17;16.20;;;;;;;5.46;100.00;95910.94;5073572;28;20452;-77
2022/11/14 07:44:56;;;;;;;30.27;16.07;;;;;;;5.40;100.00;95913.03;5073286;28;20449;-77
2022/11/14 07:47:24;;;;;;;30.17;15.43;;;;;;;5.22;100.00;95904.34;5073537;28;20933;-76
2022/11/14 07:49:51;;;;;;;30.40;18.73;;;;;;;5.28;100.00;95907.50;5073442;28;20445;-76
2022/11/14 07:52:18;;;;;;;31.63;16.97;;;;;;;5.37;100.00;95914.00;5073069;28;20453;-77
2022/11/14 07:54:45;;;;;;;38.73;20.13;;;;;;;5.47;100.00;95910.03;5073176;28;20478;-77
2022/11/14 07:57:11;;;;;;;33.00;19.57;;;;;;;5.48;100.00;95914.31;5073022;28;20488;-77
2022/11/14 07:59:38;;;;;;;33.00;18.60;;;;;;;5.55;100.00;95912.28;5073347;28;20457;-77
2022/11/14 08:02:05;;;;;;;43.53;20.67;;;;;;;5.46;100.00;95910.94;5073848;28;20498;-77
2022/11/14 08:04:33;;;;;;;29.00;18.03;;;;;;;5.43;100.00;95916.31;5073838;28;20444;-76
2022/11/14 08:07:00;;;;;;;36.30;19.40;;;;;;;5.45;100.00;95914.47;5070486;28;21028;-77
2022/11/14 08:09:26;;;;;;;39.30;19.43;;;;;;;5.32;100.00;95904.75;5071653;28;21252;-77
2022/11/14 08:11:53;;;;;;;29.20;17.80;;;;;;;5.28;100.00;95907.50;5037637;28;20932;-78
2022/11/14 08:14:20;;;;;;;38.90;20.50;;;;;;;5.37;100.00;95910.56;5073204;28;20971;-78
2022/11/14 08:16:47;;;;;;;38.93;19.40;;;;;;;5.43;100.00;95907.66;5037780;28;20981;-77
2022/11/14 08:19:15;;;;;;;31.47;16.43;;;;;;;5.53;100.00;95906.31;5036490;28;20842;-77
2022/11/14 08:21:43;;;;;;;31.40;19.47;;;;;;;5.69;100.00;95911.59;5072265;28;20771;-75
2022/11/14 08:24:10;;;;;;;30.77;19.07;;;;;;;5.75;100.00;95901.72;5072168;28;20444;-75
2022/11/14 08:26:38;;;;;;;34.43;18.20;;;;;;;5.74;100.00;95899.19;5072589;28;20441;-75
2022/11/14 08:29:05;;;;;;;33.00;18.67;;;;;;;5.76;100.00;95902.56;5072199;28;20483;-76
2022/11/14 08:34:53;;;;;;;43.90;22.87;;;;;;;5.86;100.00;95903.81;5065118;28;20428;-77
2022/11/14 08:37:21;;;;;;;35.07;20.90;;;;;;;5.95;100.00;95897.31;5071512;28;20554;-77
2022/11/14 08:39:48;;;;;;;36.63;21.10;;;;;;;5.94;100.00;95899.06;5052101;28;20437;-78
2022/11/14 08:42:15;;;;;;;33.30;18.43;;;;;;;5.94;100.00;95895.63;5071281;28;20449;-77
2022/11/14 08:44:42;;;;;;;36.63;18.80;;;;;;;6.02;100.00;95894.31;5035652;28;20442;-77
2022/11/14 08:47:08;;;;;;;29.23;18.60;;;;;;;6.05;100.00;95898.53;5037067;28;20456;-76
2022/11/14 08:49:36;;;;;;;46.87;21.27;;;;;;;6.17;100.00;95898.75;5071842;28;20451;-77
2022/11/14 08:52:03;;;;;;;45.10;23.40;;;;;;;6.31;100.00;95894.59;5072954;28;20483;-77
2022/11/14 08:54:31;;;;;;;33.40;20.47;;;;;;;6.39;100.00;95892.44;5037026;28;20522;-77
2022/11/14 08:56:58;;;;;;;35.87;19.67;;;;;;;6.45;100.00;95885.13;5072646;28;20895;-77
2022/11/14 08:59:24;;;;;;;36.47;20.50;;;;;;;6.24;100.00;95880.19;5072615;28;20448;-77
2022/11/14 09:01:51;;;;;;;43.60;20.30;;;;;;;6.31;100.00;95874.56;5071590;28;20456;-77
2022/11/14 09:04:18;;;;;;;46.43;23.60;;;;;;;6.35;100.00;95872.66;5071895;28;20827;-76
2022/11/14 09:06:45;;;;;;;37.20;20.70;;;;;;;6.27;100.00;95872.22;5071922;28;20447;-76
2022/11/14 09:09:12;;;;;;;35.07;21.57;;;;;;;6.38;100.00;95872.50;5071261;28;20446;-76
2022/11/14 09:11:41;;;;;;;48.63;22.50;;;;;;;6.47;100.00;95869.41;5071329;28;20851;-76
2022/11/14 09:14:08;;;;;;;41.23;23.83;;;;;;;6.55;100.00;95864.63;5071509;28;20443;-77
2022/11/14 09:16:35;;;;;;;43.33;22.10;;;;;;;6.55;100.00;95855.97;5071497;28;20922;-76
2022/11/14 09:19:02;;;;;;;47.17;20.80;;;;;;;6.65;100.00;95851.91;5069419;28;20450;-76
2022/11/14 09:21:28;;;;;;;44.23;25.73;;;;;;;6.65;100.00;95852.78;5039066;28;20464;-77
2022/11/14 09:23:55;;;;;;;43.57;24.50;;;;;;;6.70;100.00;95845.56;5075051;28;20441;-76
2022/11/14 09:26:22;;;;;;;40.70;21.80;;;;;;;6.68;100.00;95842.19;5074644;28;20456;-75
2022/11/14 09:28:50;;;;;;;51.57;22.53;;;;;;;6.29;100.00;95841.69;5075076;28;20450;-76
2022/11/14 09:31:17;;;;;;;54.07;25.93;;;;;;;6.46;100.00;95839.88;5074903;28;20453;-76
2022/11/14 09:33:44;;;;;;;50.63;20.67;;;;;;;6.50;100.00;95838.81;5075223;28;20453;-76
2022/11/14 09:36:14;;;;;;;43.53;21.23;;;;;;;6.34;100.00;95837.06;5074562;28;20490;-76
2022/11/14 09:38:42;;;;;;;37.23;21.60;;;;;;;6.43;100.00;95831.41;5074701;28;20808;-76
2022/11/14 09:41:23;;;;;;;39.80;22.10;;;;;;;6.41;100.00;95835.84;5074481;28;20481;-76
2022/11/14 09:44:19;;;;;;;37.00;20.53;;;;;;;6.43;100.00;95834.84;5074806;28;20470;-76
2022/11/14 09:46:49;;;;;;;43.20;22.93;;;;;;;6.48;100.00;95835.44;5032248;28;20852;-76
2022/11/14 09:49:26;;;;;;;48.50;20.30;;;;;;;6.49;100.00;95831.91;5032318;28;20451;-76
2022/11/14 09:52:01;;;;;;;38.83;23.03;;;;;;;6.60;100.00;95833.91;5031997;28;20513;-76
2022/11/14 09:54:40;;;;;;;41.73;23.97;;;;;;;6.63;100.00;95830.31;5032134;28;20467;-76
2022/11/14 09:57:15;;;;;;;48.33;24.97;;;;;;;6.66;100.00;95817.13;5031795;28;20510;-76
2022/11/14 09:59:43;;;;;;;40.90;24.27;;;;;;;6.76;100.00;95816.53;5032181;28;20450;-76
2022/11/14 10:02:31;;;;;;;52.60;25.53;;;;;;;6.76;100.00;95819.13;5032109;28;20455;-76
2022/11/14 10:05:10;;;;;;;55.33;25.57;;;;;;;6.69;100.00;95809.97;5032155;28;20448;-76
2022/11/14 10:07:45;;;;;;;41.13;23.30;;;;;;;6.72;100.00;95807.19;5032107;28;20459;-76
2022/11/14 10:10:26;;;;;;;48.77;25.57;;;;;;;6.86;100.00;95809.03;5031780;28;20448;-76
2022/11/14 10:13:06;;;;;;;41.10;22.90;;;;;;;7.02;100.00;95809.03;5031850;28;20488;-76
2022/11/14 10:15:42;;;;;;;48.50;25.57;;;;;;;7.15;100.00;95800.41;5031706;28;20946;-75
2022/11/14 10:18:36;;;;;;;48.67;26.30;;;;;;;7.34;100.00;95799.38;5031688;28;20448;-75
2022/11/14 10:21:18;;;;;;;49.37;28.10;;;;;;;7.40;100.00;95791.16;4992235;28;20470;-76
2022/11/14 10:23:55;;;;;;;47.47;24.10;;;;;;;7.46;100.00;95794.25;5006644;28;20442;-76
2022/11/14 10:26:28;;;;;;;49.53;26.20;;;;;;;7.47;100.00;95785.50;5031528;28;20469;-76
2022/11/14 10:29:33;;;;;;;52.60;28.87;;;;;;;7.49;100.00;95780.19;5031688;28;20442;-76
2022/11/14 10:32:11;;;;;;;48.17;25.00;;;;;;;7.56;100.00;95775.47;4951897;28;20844;-76
2022/11/14 10:34:46;;;;;;;51.30;25.30;;;;;;;7.54;100.00;95769.50;4953445;29;20534;-77
2022/11/14 10:37:22;;;;;;;48.60;27.03;;;;;;;7.61;100.00;95760.34;4953077;28;20586;-75
2022/11/14 10:39:59;;;;;;;50.50;26.87;;;;;;;7.73;100.00;95760.47;4953305;28;20455;-75
2022/11/14 10:42:32;;;;;;;46.73;27.70;;;;;;;7.80;100.00;95752.25;4953184;29;20589;-77
2022/11/14 10:45:03;;;;;;;45.70;26.93;;;;;;;7.86;100.00;95751.91;4953104;29;20886;-75
2022/11/14 10:47:39;;;;;;;48.03;30.08;;;;;;;7.94;100.00;95745.28;4952256;29;20481;-75
2022/11/14 10:50:18;;;;;;;39.17;25.57;;;;;;;7.80;100.00;95742.63;4953081;28;20695;-75
2022/11/14 10:52:46;;;;;;;52.70;27.93;;;;;;;7.86;100.00;95742.28;4952757;29;20450;-76
2022/11/14 10:55:15;;;;;;;48.43;27.47;;;;;;;7.90;100.00;95730.72;4905246;29;20445;-75
2022/11/14 10:57:43;;;;;;;57.77;27.70;;;;;;;7.92;100.00;95733.22;4966052;28;20494;-76
2022/11/14 11:00:14;;;;;;;45.70;25.47;;;;;;;7.93;100.00;95725.28;5011050;28;20528;-77
2022/11/14 11:02:51;;;;;;;47.70;27.00;;;;;;;8.14;100.00;95720.53;5011001;28;20441;-77
2022/11/14 11:05:20;;;;;;;43.77;27.07;;;;;;;8.19;100.00;95717.63;4994498;28;20491;-77
2022/11/14 11:13:31;;;;;;;46.67;25.83;;;;;;;8.42;100.00;95722.31;5043309;28;20546;-75
2022/11/14 11:16:00;;;;;;;41.40;24.47;;;;;;;8.55;100.00;95712.72;5072964;28;20437;-76
2022/11/14 11:18:31;;;;;;;51.07;28.63;;;;;;;8.54;99.53;95711.03;5072999;28;20448;-76
2022/11/14 11:21:09;;;;;;;46.53;26.70;;;;;;;8.56;99.57;95709.16;5072513;28;20951;-75
2022/11/14 11:23:47;;;;;;;49.87;27.27;;;;;;;8.63;99.15;95712.22;5072625;28;20486;-76
2022/11/14 11:26:20;;;;;;;46.30;26.87;;;;;;;8.57;98.92;95716.09;5072765;28;20451;-76
2022/11/14 11:29:05;;;;;;;42.23;26.23;;;;;;;8.62;98.78;95707.94;5072806;28;20498;-76
2022/11/14 11:31:50;;;;;;;41.03;24.30;;;;;;;8.64;99.20;95704.28;5072393;28;20444;-76
2022/11/14 11:34:24;;;;;;;48.13;25.93;;;;;;;8.76;98.91;95699.22;5072609;28;20444;-76